sensor_id;sensor_type;location;lat;lon;timestamp;pressure;altitude;pressure_sealevel;temperature;humidity
10988;BME280;5547;42.672;23.230;2023-02-17T00:00:22;94218.03;;;-1.56;83.17
10988;BME280;5547;42.672;23.230;2023-02-17T00:03:22;94251.22;;;-1.31;83.66
10988;BME280;5547;42.672;23.230;2023-02-17T00:06:25;94246.63;;;-1.25;84.09
10988;BME280;5547;42.672;23.230;2023-02-17T00:09:26;94250.00;;;-0.55;79.92
10988;BME280;5547;42.672;23.230;2023-02-17T00:12:26;94240.09;;;0.07;76.99
10988;BME280;5547;42.672;23.230;2023-02-17T00:15:27;94224.69;;;-0.16;76.57
10988;BME280;5547;42.672;23.230;2023-02-17T00:18:27;94246.34;;;-0.07;76.27
10988;BME280;5547;42.672;23.230;2023-02-17T00:21:30;94227.91;;;-0.19;75.55
10988;BME280;5547;42.672;23.230;2023-02-17T00:24:31;94229.66;;;-0.40;76.21
10988;BME280;5547;42.672;23.230;2023-02-17T00:27:32;94232.88;;;-0.35;75.58
10988;BME280;5547;42.672;23.230;2023-02-17T00:30:33;94245.06;;;-0.48;76.95
10988;BME280;5547;42.672;23.230;2023-02-17T00:33:34;94232.94;;;-0.61;77.29
10988;BME280;5547;42.672;23.230;2023-02-17T00:36:34;94240.34;;;-0.80;80.52
10988;BME280;5547;42.672;23.230;2023-02-17T00:39:35;94237.59;;;-1.10;80.95
10988;BME280;5547;42.672;23.230;2023-02-17T00:42:35;94230.50;;;-1.36;81.59
10988;BME280;5547;42.672;23.230;2023-02-17T00:45:35;94221.75;;;-1.31;81.64
10988;BME280;5547;42.672;23.230;2023-02-17T00:48:36;94210.25;;;-1.13;79.97
10988;BME280;5547;42.672;23.230;2023-02-17T00:51:36;94204.88;;;-1.34;81.95
10988;BME280;5547;42.672;23.230;2023-02-17T00:54:37;94188.16;;;-1.15;80.77
10988;BME280;5547;42.672;23.230;2023-02-17T00:57:38;94197.75;;;-0.72;77.80
10988;BME280;5547;42.672;23.230;2023-02-17T01:00:38;94150.44;;;-0.79;76.13
10988;BME280;5547;42.672;23.230;2023-02-17T01:03:40;94206.13;;;-0.40;75.69
10988;BME280;5547;42.672;23.230;2023-02-17T01:06:41;94140.41;;;-0.22;72.37
10988;BME280;5547;42.672;23.230;2023-02-17T01:09:41;94171.00;;;-0.22;74.18
10988;BME280;5547;42.672;23.230;2023-02-17T01:12:42;94212.19;;;-0.10;74.66
10988;BME280;5547;42.672;23.230;2023-02-17T01:15:50;94195.69;;;-0.40;75.71
10988;BME280;5547;42.672;23.230;2023-02-17T01:18:51;94211.72;;;-0.59;77.15
10988;BME280;5547;42.672;23.230;2023-02-17T01:21:52;94191.53;;;-1.06;78.89
10988;BME280;5547;42.672;23.230;2023-02-17T01:24:52;94203.47;;;-1.05;80.12
10988;BME280;5547;42.672;23.230;2023-02-17T01:27:53;94121.03;;;-1.76;80.74
10988;BME280;5547;42.672;23.230;2023-02-17T01:30:53;94197.97;;;-1.21;80.69
10988;BME280;5547;42.672;23.230;2023-02-17T01:33:56;94194.13;;;-1.23;80.78
10988;BME280;5547;42.672;23.230;2023-02-17T01:36:56;94094.03;;;-1.71;79.53
10988;BME280;5547;42.672;23.230;2023-02-17T01:39:57;94166.16;;;-1.14;78.71
10988;BME280;5547;42.672;23.230;2023-02-17T01:42:57;94196.13;;;-1.03;79.47
10988;BME280;5547;42.672;23.230;2023-02-17T01:46:00;94200.41;;;-1.07;79.80
10988;BME280;5547;42.672;23.230;2023-02-17T01:49:04;94189.19;;;-1.16;80.55
10988;BME280;5547;42.672;23.230;2023-02-17T01:52:24;94136.69;;;-1.76;81.57
10988;BME280;5547;42.672;23.230;2023-02-17T01:55:25;94089.00;;;-1.94;81.07
10988;BME280;5547;42.672;23.230;2023-02-17T01:58:27;94122.28;;;-1.82;81.63
10988;BME280;5547;42.672;23.230;2023-02-17T02:01:29;94151.47;;;-1.45;80.43
10988;BME280;5547;42.672;23.230;2023-02-17T02:04:32;94174.59;;;-0.82;78.66
10988;BME280;5547;42.672;23.230;2023-02-17T02:07:36;94177.66;;;-0.80;78.12
10988;BME280;5547;42.672;23.230;2023-02-17T02:10:38;94186.94;;;-0.53;76.47
10988;BME280;5547;42.672;23.230;2023-02-17T02:13:39;94176.47;;;-0.45;75.97
10988;BME280;5547;42.672;23.230;2023-02-17T02:30:12;94174.25;;;0.55;71.76
10988;BME280;5547;42.672;23.230;2023-02-17T02:33:39;94130.69;;;0.09;73.08
10988;BME280;5547;42.672;23.230;2023-02-17T02:39:57;94095.84;;;-1.19;78.30
10988;BME280;5547;42.672;23.230;2023-02-17T02:43:00;94142.22;;;-1.16;79.82
10988;BME280;5547;42.672;23.230;2023-02-17T02:46:01;94154.66;;;-1.22;80.50
10988;BME280;5547;42.672;23.230;2023-02-17T02:49:02;94187.84;;;-1.22;81.81
10988;BME280;5547;42.672;23.230;2023-02-17T02:55:52;94181.84;;;-1.40;83.10
10988;BME280;5547;42.672;23.230;2023-02-17T02:59:02;94176.00;;;-1.55;84.07
10988;BME280;5547;42.672;23.230;2023-02-17T03:08:44;94178.06;;;-0.14;75.08
10988;BME280;5547;42.672;23.230;2023-02-17T03:11:43;94178.25;;;0.11;72.27
10988;BME280;5547;42.672;23.230;2023-02-17T03:14:46;94178.19;;;0.19;71.96
10988;BME280;5547;42.672;23.230;2023-02-17T03:17:48;94181.94;;;0.10;72.09
10988;BME280;5547;42.672;23.230;2023-02-17T03:20:56;94178.66;;;-0.08;74.66
10988;BME280;5547;42.672;23.230;2023-02-17T03:24:00;94150.81;;;-0.51;74.51
10988;BME280;5547;42.672;23.230;2023-02-17T03:27:01;94169.59;;;-0.11;73.44
10988;BME280;5547;42.672;23.230;2023-02-17T03:30:02;94177.69;;;-0.04;73.63
10988;BME280;5547;42.672;23.230;2023-02-17T03:33:03;94176.59;;;-0.03;72.97
10988;BME280;5547;42.672;23.230;2023-02-17T03:36:04;94178.47;;;0.48;68.91
10988;BME280;5547;42.672;23.230;2023-02-17T03:39:04;94172.91;;;0.91;66.16
10988;BME280;5547;42.672;23.230;2023-02-17T03:42:05;94138.09;;;0.91;64.69
10988;BME280;5547;42.672;23.230;2023-02-17T03:45:05;94169.31;;;1.75;61.70
10988;BME280;5547;42.672;23.230;2023-02-17T03:48:06;94169.44;;;1.91;60.65
10988;BME280;5547;42.672;23.230;2023-02-17T03:51:18;94153.22;;;2.25;59.30
10988;BME280;5547;42.672;23.230;2023-02-17T03:54:19;94171.44;;;2.71;57.34
10988;BME280;5547;42.672;23.230;2023-02-17T03:57:19;94119.91;;;2.01;60.98
10988;BME280;5547;42.672;23.230;2023-02-17T04:00:19;94187.03;;;0.99;68.71
10988;BME280;5547;42.672;23.230;2023-02-17T04:03:20;94179.66;;;0.29;72.96
10988;BME280;5547;42.672;23.230;2023-02-17T04:06:21;94110.06;;;-0.82;75.91
10988;BME280;5547;42.672;23.230;2023-02-17T04:09:21;94172.78;;;-0.44;76.43
10988;BME280;5547;42.672;23.230;2023-02-17T04:12:21;94110.22;;;-0.78;75.53
10988;BME280;5547;42.672;23.230;2023-02-17T04:15:22;94107.47;;;-0.44;71.28
10988;BME280;5547;42.672;23.230;2023-02-17T04:18:22;94139.25;;;0.18;68.33
10988;BME280;5547;42.672;23.230;2023-02-17T04:21:23;94170.31;;;0.28;72.82
10988;BME280;5547;42.672;23.230;2023-02-17T04:24:23;94154.56;;;-0.70;76.89
10988;BME280;5547;42.672;23.230;2023-02-17T04:27:23;94082.53;;;-1.44;79.02
10988;BME280;5547;42.672;23.230;2023-02-17T04:30:24;94177.69;;;-1.15;80.41
10988;BME280;5547;42.672;23.230;2023-02-17T04:33:25;94166.50;;;-1.42;82.11
10988;BME280;5547;42.672;23.230;2023-02-17T04:36:26;94034.69;;;-2.26;82.47
10988;BME280;5547;42.672;23.230;2023-02-17T04:39:26;94112.63;;;-1.73;82.62
10988;BME280;5547;42.672;23.230;2023-02-17T04:42:26;94182.00;;;-1.37;82.95
10988;BME280;5547;42.672;23.230;2023-02-17T04:45:27;94182.13;;;-1.51;83.04
10988;BME280;5547;42.672;23.230;2023-02-17T04:48:27;94144.09;;;-1.52;80.24
10988;BME280;5547;42.672;23.230;2023-02-17T04:51:28;94143.91;;;-1.20;78.81
10988;BME280;5547;42.672;23.230;2023-02-17T04:54:28;94181.94;;;-0.76;78.19
10988;BME280;5547;42.672;23.230;2023-02-17T04:57:29;94180.91;;;-1.01;79.55
10988;BME280;5547;42.672;23.230;2023-02-17T05:00:29;94127.66;;;-1.70;81.15
10988;BME280;5547;42.672;23.230;2023-02-17T05:03:30;94172.31;;;-1.62;82.69
10988;BME280;5547;42.672;23.230;2023-02-17T05:06:30;94196.56;;;-1.53;82.98
10988;BME280;5547;42.672;23.230;2023-02-17T05:09:31;94191.47;;;-1.67;83.76
10988;BME280;5547;42.672;23.230;2023-02-17T05:12:31;94191.97;;;-1.39;81.99
10988;BME280;5547;42.672;23.230;2023-02-17T05:15:31;94167.97;;;-0.89;76.76
10988;BME280;5547;42.672;23.230;2023-02-17T05:18:32;94192.06;;;0.11;71.67
10988;BME280;5547;42.672;23.230;2023-02-17T05:21:32;94208.50;;;0.20;73.02
10988;BME280;5547;42.672;23.230;2023-02-17T05:24:33;94209.75;;;-0.71;77.64
10988;BME280;5547;42.672;23.230;2023-02-17T05:27:33;94182.91;;;-1.15;79.37
10988;BME280;5547;42.672;23.230;2023-02-17T05:30:33;94237.41;;;-1.14;80.90
10988;BME280;5547;42.672;23.230;2023-02-17T05:33:34;94213.00;;;-1.09;79.66
10988;BME280;5547;42.672;23.230;2023-02-17T05:36:34;94248.94;;;-0.97;79.74
10988;BME280;5547;42.672;23.230;2023-02-17T05:39:35;94205.00;;;-1.30;80.66
10988;BME280;5547;42.672;23.230;2023-02-17T05:42:35;94234.97;;;-1.19;80.94
10988;BME280;5547;42.672;23.230;2023-02-17T05:45:35;94240.34;;;-1.24;82.32
10988;BME280;5547;42.672;23.230;2023-02-17T05:48:36;94247.53;;;-1.30;83.44
10988;BME280;5547;42.672;23.230;2023-02-17T05:51:37;94252.91;;;-1.35;82.76
10988;BME280;5547;42.672;23.230;2023-02-17T05:54:37;94251.53;;;-1.23;82.83
10988;BME280;5547;42.672;23.230;2023-02-17T05:57:38;94247.25;;;-1.19;83.83
10988;BME280;5547;42.672;23.230;2023-02-17T06:00:38;94236.19;;;-0.90;79.83
10988;BME280;5547;42.672;23.230;2023-02-17T06:03:39;94202.63;;;-0.06;72.35
10988;BME280;5547;42.672;23.230;2023-02-17T06:06:39;94239.66;;;0.85;70.04
10988;BME280;5547;42.672;23.230;2023-02-17T06:09:40;94256.34;;;2.01;63.32
10988;BME280;5547;42.672;23.230;2023-02-17T06:12:40;94250.41;;;3.31;56.27
10988;BME280;5547;42.672;23.230;2023-02-17T06:15:44;94221.19;;;3.48;54.56
10988;BME280;5547;42.672;23.230;2023-02-17T06:18:45;94241.63;;;3.99;53.13
10988;BME280;5547;42.672;23.230;2023-02-17T06:21:46;94268.81;;;4.35;51.87
10988;BME280;5547;42.672;23.230;2023-02-17T06:24:46;94234.75;;;4.26;51.11
10988;BME280;5547;42.672;23.230;2023-02-17T06:27:47;94193.19;;;4.51;48.83
10988;BME280;5547;42.672;23.230;2023-02-17T06:30:47;94264.94;;;5.35;47.63
10988;BME280;5547;42.672;23.230;2023-02-17T06:33:47;94272.09;;;5.54;47.44
10988;BME280;5547;42.672;23.230;2023-02-17T06:36:48;94268.94;;;5.87;45.57
10988;BME280;5547;42.672;23.230;2023-02-17T06:39:48;94227.78;;;6.05;43.67
10988;BME280;5547;42.672;23.230;2023-02-17T06:42:49;94279.59;;;6.37;45.16
10988;BME280;5547;42.672;23.230;2023-02-17T06:45:49;94257.66;;;6.32;43.73
10988;BME280;5547;42.672;23.230;2023-02-17T06:48:50;94288.66;;;6.59;43.80
10988;BME280;5547;42.672;23.230;2023-02-17T06:51:50;94231.94;;;6.56;42.35
10988;BME280;5547;42.672;23.230;2023-02-17T06:54:51;94283.13;;;6.94;41.70
10988;BME280;5547;42.672;23.230;2023-02-17T06:57:51;94277.72;;;6.87;42.21
10988;BME280;5547;42.672;23.230;2023-02-17T07:00:52;94292.22;;;6.97;42.44
10988;BME280;5547;42.672;23.230;2023-02-17T07:03:54;94279.91;;;7.08;41.93
10988;BME280;5547;42.672;23.230;2023-02-17T07:06:54;94284.56;;;7.18;41.18
10988;BME280;5547;42.672;23.230;2023-02-17T07:09:55;94296.13;;;7.36;40.47
10988;BME280;5547;42.672;23.230;2023-02-17T07:12:55;94295.63;;;7.54;40.97
10988;BME280;5547;42.672;23.230;2023-02-17T07:15:56;94277.66;;;7.40;40.40
10988;BME280;5547;42.672;23.230;2023-02-17T07:18:56;94298.88;;;7.44;41.85
10988;BME280;5547;42.672;23.230;2023-02-17T07:21:56;94285.34;;;7.83;39.29
10988;BME280;5547;42.672;23.230;2023-02-17T07:24:57;94314.34;;;8.06;39.48
10988;BME280;5547;42.672;23.230;2023-02-17T07:27:58;94305.06;;;8.26;38.18
10988;BME280;5547;42.672;23.230;2023-02-17T07:31:09;94317.44;;;8.49;38.21
10988;BME280;5547;42.672;23.230;2023-02-17T07:34:10;94307.13;;;8.40;38.46
10988;BME280;5547;42.672;23.230;2023-02-17T07:37:10;94315.13;;;8.44;37.95
10988;BME280;5547;42.672;23.230;2023-02-17T07:40:11;94275.13;;;8.22;37.89
10988;BME280;5547;42.672;23.230;2023-02-17T07:43:11;94317.19;;;8.65;37.65
10988;BME280;5547;42.672;23.230;2023-02-17T07:46:12;94319.16;;;8.71;37.26
10988;BME280;5547;42.672;23.230;2023-02-17T07:49:13;94314.66;;;8.82;37.03
10988;BME280;5547;42.672;23.230;2023-02-17T07:52:17;94310.03;;;8.72;37.09
10988;BME280;5547;42.672;23.230;2023-02-17T07:55:18;94315.75;;;8.74;38.53
10988;BME280;5547;42.672;23.230;2023-02-17T07:58:18;94293.31;;;8.65;37.83
10988;BME280;5547;42.672;23.230;2023-02-17T08:01:21;94292.09;;;8.55;38.03
10988;BME280;5547;42.672;23.230;2023-02-17T08:04:24;94321.06;;;8.74;38.81
10988;BME280;5547;42.672;23.230;2023-02-17T08:07:26;94317.22;;;8.68;39.49
10988;BME280;5547;42.672;23.230;2023-02-17T08:10:27;94279.88;;;8.43;39.92
10988;BME280;5547;42.672;23.230;2023-02-17T08:13:46;94323.22;;;8.61;40.32
10988;BME280;5547;42.672;23.230;2023-02-17T08:16:47;94329.75;;;8.71;41.15
10988;BME280;5547;42.672;23.230;2023-02-17T08:19:49;94323.31;;;8.72;40.23
10988;BME280;5547;42.672;23.230;2023-02-17T08:22:50;94316.16;;;8.76;39.89
10988;BME280;5547;42.672;23.230;2023-02-17T08:25:50;94324.84;;;8.77;41.30
10988;BME280;5547;42.672;23.230;2023-02-17T08:28:51;94312.03;;;8.86;39.96
10988;BME280;5547;42.672;23.230;2023-02-17T08:31:52;94293.44;;;8.82;37.84
10988;BME280;5547;42.672;23.230;2023-02-17T08:34:56;94318.28;;;9.08;39.87
10988;BME280;5547;42.672;23.230;2023-02-17T08:37:57;94317.75;;;8.92;39.50
10988;BME280;5547;42.672;23.230;2023-02-17T08:40:57;94320.16;;;9.08;40.05
10988;BME280;5547;42.672;23.230;2023-02-17T08:44:00;94324.03;;;9.21;38.80
10988;BME280;5547;42.672;23.230;2023-02-17T08:47:02;94281.84;;;9.01;37.64
10988;BME280;5547;42.672;23.230;2023-02-17T08:50:06;94280.00;;;9.16;36.70
10988;BME280;5547;42.672;23.230;2023-02-17T08:53:07;94321.88;;;9.41;37.32
10988;BME280;5547;42.672;23.230;2023-02-17T08:56:08;94271.28;;;9.16;36.68
10988;BME280;5547;42.672;23.230;2023-02-17T08:59:09;94313.91;;;9.41;35.45
10988;BME280;5547;42.672;23.230;2023-02-17T09:02:10;94274.75;;;9.20;38.33
10988;BME280;5547;42.672;23.230;2023-02-17T09:05:12;94315.06;;;9.47;36.77
10988;BME280;5547;42.672;23.230;2023-02-17T09:08:13;94274.19;;;8.96;37.27
10988;BME280;5547;42.672;23.230;2023-02-17T09:11:13;94322.69;;;9.52;36.77
10988;BME280;5547;42.672;23.230;2023-02-17T09:14:16;94317.53;;;9.88;35.51
10988;BME280;5547;42.672;23.230;2023-02-17T09:17:16;94307.22;;;9.76;36.61
10988;BME280;5547;42.672;23.230;2023-02-17T09:20:17;94311.03;;;9.82;35.58
10988;BME280;5547;42.672;23.230;2023-02-17T09:23:18;94316.41;;;9.89;35.83
10988;BME280;5547;42.672;23.230;2023-02-17T09:26:19;94303.44;;;9.77;35.75
10988;BME280;5547;42.672;23.230;2023-02-17T09:29:20;94314.09;;;9.91;36.04
10988;BME280;5547;42.672;23.230;2023-02-17T09:32:20;94311.47;;;9.95;35.23
10988;BME280;5547;42.672;23.230;2023-02-17T09:35:21;94307.28;;;9.90;35.57
10988;BME280;5547;42.672;23.230;2023-02-17T09:38:21;94309.56;;;9.84;35.25
10988;BME280;5547;42.672;23.230;2023-02-17T09:41:24;94309.59;;;10.09;35.25
10988;BME280;5547;42.672;23.230;2023-02-17T09:44:39;94301.63;;;9.99;35.02
10988;BME280;5547;42.672;23.230;2023-02-17T09:47:54;94313.78;;;10.03;33.27
10988;BME280;5547;42.672;23.230;2023-02-17T09:51:04;94308.09;;;10.08;34.43
10988;BME280;5547;42.672;23.230;2023-02-17T09:54:16;94311.22;;;10.39;33.74
10988;BME280;5547;42.672;23.230;2023-02-17T09:57:20;94311.56;;;10.27;33.21
10988;BME280;5547;42.672;23.230;2023-02-17T10:00:31;94314.97;;;10.17;33.29
10988;BME280;5547;42.672;23.230;2023-02-17T10:03:43;94300.16;;;10.19;34.59
10988;BME280;5547;42.672;23.230;2023-02-17T10:06:46;94300.88;;;10.16;34.57
10988;BME280;5547;42.672;23.230;2023-02-17T10:09:52;94294.06;;;10.15;34.93
10988;BME280;5547;42.672;23.230;2023-02-17T10:12:57;94310.38;;;10.21;32.72
10988;BME280;5547;42.672;23.230;2023-02-17T10:16:03;94300.13;;;10.23;34.05
10988;BME280;5547;42.672;23.230;2023-02-17T10:19:27;94265.19;;;10.06;34.36
10988;BME280;5547;42.672;23.230;2023-02-17T10:22:31;94296.78;;;10.33;33.69
10988;BME280;5547;42.672;23.230;2023-02-17T10:25:54;94295.59;;;10.20;34.01
10988;BME280;5547;42.672;23.230;2023-02-17T10:29:32;94286.06;;;10.12;33.67
10988;BME280;5547;42.672;23.230;2023-02-17T10:39:48;94279.31;;;10.46;33.60
10988;BME280;5547;42.672;23.230;2023-02-17T10:42:52;94274.38;;;10.56;34.29
10988;BME280;5547;42.672;23.230;2023-02-17T10:45:55;94240.53;;;10.42;33.13
10988;BME280;5547;42.672;23.230;2023-02-17T10:48:57;94261.41;;;10.25;34.20
10988;BME280;5547;42.672;23.230;2023-02-17T10:52:39;94255.75;;;10.56;33.39
10988;BME280;5547;42.672;23.230;2023-02-17T10:58:57;94245.13;;;10.45;35.52
10988;BME280;5547;42.672;23.230;2023-02-17T11:08:34;94250.81;;;10.47;34.03
10988;BME280;5547;42.672;23.230;2023-02-17T11:11:36;94246.25;;;10.65;34.78
10988;BME280;5547;42.672;23.230;2023-02-17T11:14:43;94245.84;;;10.74;34.64
10988;BME280;5547;42.672;23.230;2023-02-17T11:17:45;94249.28;;;10.60;34.61
10988;BME280;5547;42.672;23.230;2023-02-17T11:20:46;94247.38;;;10.79;35.12
10988;BME280;5547;42.672;23.230;2023-02-17T11:23:54;94247.41;;;10.68;33.99
10988;BME280;5547;42.672;23.230;2023-02-17T11:27:03;94250.03;;;10.93;33.48
10988;BME280;5547;42.672;23.230;2023-02-17T11:30:12;94242.84;;;10.79;34.73
10988;BME280;5547;42.672;23.230;2023-02-17T11:33:19;94237.13;;;10.77;34.99
10988;BME280;5547;42.672;23.230;2023-02-17T11:36:27;94244.31;;;10.87;35.10
10988;BME280;5547;42.672;23.230;2023-02-17T11:39:28;94243.56;;;10.90;34.37
10988;BME280;5547;42.672;23.230;2023-02-17T11:42:30;94215.44;;;10.82;35.29
10988;BME280;5547;42.672;23.230;2023-02-17T11:55:21;94218.47;;;10.81;36.99
10988;BME280;5547;42.672;23.230;2023-02-17T12:02:36;94216.16;;;11.08;36.42
10988;BME280;5547;42.672;23.230;2023-02-17T12:05:54;94207.00;;;11.09;36.78
10988;BME280;5547;42.672;23.230;2023-02-17T12:12:28;94194.47;;;11.09;36.83
10988;BME280;5547;42.672;23.230;2023-02-17T12:35:37;94082.47;;;10.57;35.64
10988;BME280;5547;42.672;23.230;2023-02-17T12:39:02;94161.00;;;11.12;35.32
10988;BME280;5547;42.672;23.230;2023-02-17T12:42:17;94157.94;;;11.17;35.19
10988;BME280;5547;42.672;23.230;2023-02-17T12:45:21;94158.31;;;11.12;34.96
10988;BME280;5547;42.672;23.230;2023-02-17T12:48:30;94120.34;;;10.97;35.67
10988;BME280;5547;42.672;23.230;2023-02-17T12:51:38;94156.75;;;11.25;35.11
10988;BME280;5547;42.672;23.230;2023-02-17T12:54:45;94096.84;;;10.78;35.09
10988;BME280;5547;42.672;23.230;2023-02-17T12:57:50;94142.38;;;11.05;35.71
10988;BME280;5547;42.672;23.230;2023-02-17T13:01:06;94138.56;;;11.06;36.12
10988;BME280;5547;42.672;23.230;2023-02-17T13:04:14;94145.03;;;11.12;34.78
10988;BME280;5547;42.672;23.230;2023-02-17T13:07:28;94085.06;;;10.82;36.15
10988;BME280;5547;42.672;23.230;2023-02-17T13:10:34;94145.03;;;11.12;35.21
10988;BME280;5547;42.672;23.230;2023-02-17T13:13:35;94126.41;;;11.01;34.48
10988;BME280;5547;42.672;23.230;2023-02-17T13:16:43;94138.94;;;11.08;34.77
10988;BME280;5547;42.672;23.230;2023-02-17T13:19:43;94118.09;;;10.96;34.14
10988;BME280;5547;42.672;23.230;2023-02-17T13:22:44;94130.47;;;11.27;33.89
10988;BME280;5547;42.672;23.230;2023-02-17T13:25:45;94087.63;;;11.04;33.00
10988;BME280;5547;42.672;23.230;2023-02-17T13:28:46;94141.91;;;11.28;33.55
10988;BME280;5547;42.672;23.230;2023-02-17T13:31:53;94101.38;;;10.91;33.81
10988;BME280;5547;42.672;23.230;2023-02-17T13:35:27;94139.25;;;11.24;33.80
10988;BME280;5547;42.672;23.230;2023-02-17T13:38:30;94133.88;;;11.31;33.26
10988;BME280;5547;42.672;23.230;2023-02-17T13:41:58;94137.31;;;11.35;33.00
10988;BME280;5547;42.672;23.230;2023-02-17T13:44:59;94132.47;;;11.16;33.64
10988;BME280;5547;42.672;23.230;2023-02-17T13:48:32;94131.28;;;11.21;33.03
10988;BME280;5547;42.672;23.230;2023-02-17T13:51:32;94096.38;;;11.01;32.68
10988;BME280;5547;42.672;23.230;2023-02-17T13:54:33;94132.09;;;11.14;33.32
10988;BME280;5547;42.672;23.230;2023-02-17T13:57:35;94118.44;;;11.05;32.00
10988;BME280;5547;42.672;23.230;2023-02-17T14:00:36;94088.47;;;10.86;32.56
10988;BME280;5547;42.672;23.230;2023-02-17T14:03:49;94132.13;;;11.03;32.96
10988;BME280;5547;42.672;23.230;2023-02-17T14:06:50;94123.38;;;11.03;32.50
10988;BME280;5547;42.672;23.230;2023-02-17T14:09:54;94112.00;;;10.88;31.87
10988;BME280;5547;42.672;23.230;2023-02-17T14:12:56;94134.78;;;11.03;31.70
10988;BME280;5547;42.672;23.230;2023-02-17T14:15:58;94131.78;;;10.94;32.19
10988;BME280;5547;42.672;23.230;2023-02-17T14:19:12;94134.06;;;10.81;32.99
10988;BME280;5547;42.672;23.230;2023-02-17T14:22:26;94138.31;;;10.64;33.04
10988;BME280;5547;42.672;23.230;2023-02-17T14:25:29;94138.72;;;10.52;33.05
10988;BME280;5547;42.672;23.230;2023-02-17T14:28:30;94155.44;;;10.45;32.91
10988;BME280;5547;42.672;23.230;2023-02-17T14:31:38;94144.81;;;10.20;34.17
10988;BME280;5547;42.672;23.230;2023-02-17T14:34:39;94115.56;;;10.09;35.32
10988;BME280;5547;42.672;23.230;2023-02-17T14:37:41;94130.38;;;10.07;35.96
10988;BME280;5547;42.672;23.230;2023-02-17T14:40:41;94117.47;;;9.84;37.40
10988;BME280;5547;42.672;23.230;2023-02-17T14:43:42;94100.75;;;9.65;37.87
10988;BME280;5547;42.672;23.230;2023-02-17T14:46:42;94120.53;;;9.75;37.64
10988;BME280;5547;42.672;23.230;2023-02-17T14:49:44;94137.94;;;9.73;37.68
10988;BME280;5547;42.672;23.230;2023-02-17T14:52:46;94125.06;;;9.64;37.21
10988;BME280;5547;42.672;23.230;2023-02-17T14:55:50;94125.84;;;9.75;36.72
10988;BME280;5547;42.672;23.230;2023-02-17T14:58:53;94120.50;;;9.57;37.24
10988;BME280;5547;42.672;23.230;2023-02-17T15:01:53;94043.00;;;8.94;37.49
10988;BME280;5547;42.672;23.230;2023-02-17T15:04:55;94113.97;;;9.22;38.27
10988;BME280;5547;42.672;23.230;2023-02-17T15:07:58;94117.75;;;9.18;39.01
10988;BME280;5547;42.672;23.230;2023-02-17T15:11:00;94120.00;;;9.09;39.50
10988;BME280;5547;42.672;23.230;2023-02-17T15:14:02;94110.38;;;8.72;40.48
10988;BME280;5547;42.672;23.230;2023-02-17T15:17:02;94122.09;;;8.67;41.05
10988;BME280;5547;42.672;23.230;2023-02-17T15:20:03;94116.31;;;8.44;41.65
10988;BME280;5547;42.672;23.230;2023-02-17T15:23:11;94119.31;;;8.46;41.73
10988;BME280;5547;42.672;23.230;2023-02-17T15:26:11;94121.69;;;8.03;43.14
10988;BME280;5547;42.672;23.230;2023-02-17T15:29:23;94097.69;;;7.85;43.25
10988;BME280;5547;42.672;23.230;2023-02-17T15:32:23;94124.53;;;7.83;43.71
10988;BME280;5547;42.672;23.230;2023-02-17T15:35:26;94089.31;;;7.31;45.02
10988;BME280;5547;42.672;23.230;2023-02-17T15:38:26;94132.03;;;7.33;45.72
10988;BME280;5547;42.672;23.230;2023-02-17T15:41:27;94140.41;;;7.39;44.86
10988;BME280;5547;42.672;23.230;2023-02-17T15:44:38;94137.34;;;7.33;44.46
10988;BME280;5547;42.672;23.230;2023-02-17T15:47:40;94138.69;;;7.20;45.14
10988;BME280;5547;42.672;23.230;2023-02-17T15:50:41;94056.31;;;6.50;44.75
10988;BME280;5547;42.672;23.230;2023-02-17T15:53:41;94161.19;;;7.03;44.59
10988;BME280;5547;42.672;23.230;2023-02-17T15:56:45;94144.25;;;6.77;44.96
10988;BME280;5547;42.672;23.230;2023-02-17T15:59:46;94169.88;;;6.73;45.83
10988;BME280;5547;42.672;23.230;2023-02-17T16:02:46;94161.91;;;6.69;45.87
10988;BME280;5547;42.672;23.230;2023-02-17T16:05:47;94171.78;;;6.72;45.71
10988;BME280;5547;42.672;23.230;2023-02-17T16:08:47;94181.72;;;6.83;44.80
10988;BME280;5547;42.672;23.230;2023-02-17T16:11:50;94168.94;;;7.19;42.75
10988;BME280;5547;42.672;23.230;2023-02-17T16:14:51;94182.47;;;7.13;42.91
10988;BME280;5547;42.672;23.230;2023-02-17T16:17:51;94186.56;;;7.07;42.07
10988;BME280;5547;42.672;23.230;2023-02-17T16:20:52;94189.31;;;7.18;41.48
10988;BME280;5547;42.672;23.230;2023-02-17T16:23:53;94186.69;;;6.88;42.37
10988;BME280;5547;42.672;23.230;2023-02-17T16:26:58;94160.91;;;6.51;42.61
10988;BME280;5547;42.672;23.230;2023-02-17T16:29:59;94124.38;;;5.80;43.36
10988;BME280;5547;42.672;23.230;2023-02-17T16:33:01;94185.00;;;6.46;43.56
10988;BME280;5547;42.672;23.230;2023-02-17T16:36:01;94188.09;;;6.02;44.99
10988;BME280;5547;42.672;23.230;2023-02-17T16:39:10;94190.88;;;6.09;44.48
10988;BME280;5547;42.672;23.230;2023-02-17T16:42:12;94183.97;;;5.81;45.13
10988;BME280;5547;42.672;23.230;2023-02-17T16:45:23;94190.25;;;5.73;45.80
10988;BME280;5547;42.672;23.230;2023-02-17T16:48:26;94186.47;;;5.51;48.54
10988;BME280;5547;42.672;23.230;2023-02-17T16:51:27;94153.50;;;5.41;46.30
10988;BME280;5547;42.672;23.230;2023-02-17T16:54:28;94186.94;;;5.80;46.34
10988;BME280;5547;42.672;23.230;2023-02-17T16:57:28;94163.22;;;5.37;46.19
10988;BME280;5547;42.672;23.230;2023-02-17T17:00:32;94142.97;;;5.22;45.95
10988;BME280;5547;42.672;23.230;2023-02-17T17:03:32;94194.72;;;5.50;46.15
10988;BME280;5547;42.672;23.230;2023-02-17T17:06:33;94178.56;;;5.51;45.40
10988;BME280;5547;42.672;23.230;2023-02-17T17:09:34;94170.03;;;5.38;45.48
10988;BME280;5547;42.672;23.230;2023-02-17T17:12:35;94201.69;;;5.38;45.73
10988;BME280;5547;42.672;23.230;2023-02-17T17:15:37;94194.84;;;5.14;47.66
10988;BME280;5547;42.672;23.230;2023-02-17T17:18:40;94190.94;;;4.69;49.08
10988;BME280;5547;42.672;23.230;2023-02-17T17:21:42;94161.63;;;4.55;47.97
10988;BME280;5547;42.672;23.230;2023-02-17T17:24:42;94158.50;;;4.14;48.89
10988;BME280;5547;42.672;23.230;2023-02-17T17:27:43;94180.97;;;4.27;49.40
10988;BME280;5547;42.672;23.230;2023-02-17T17:30:46;94182.63;;;4.00;50.13
10988;BME280;5547;42.672;23.230;2023-02-17T17:33:47;94181.25;;;3.90;50.28
10988;BME280;5547;42.672;23.230;2023-02-17T17:36:48;94182.47;;;3.93;49.95